Time,TemperatureF,DewpointF,PressureIn,WindDirection,WindDirectionDegrees,WindSpeedMPH,WindSpeedGustMPH,Humidity,HourlyPrecipIn,Conditions,Clouds,dailyrainin,SoftwareType,DateUTC
2013-08-01 00:02:00,77.4,68.2,29.67,NE,35,4.0,4.0,74,0.00,,---,0.00,VWS V14.01,2013-08-01 05:02:00,
2013-08-01 00:07:00,77.2,68.1,29.67,NE,35,4.0,4.0,74,0.00,,---,0.00,VWS V14.01,2013-08-01 05:07:00,
2013-08-01 00:12:00,76.8,68.9,29.67,NE,35,4.0,4.0,76,0.00,,---,0.00,VWS V14.01,2013-08-01 05:12:00,
2013-08-01 00:17:00,76.6,69.3,29.70,NE,35,4.0,4.0,78,0.00,,---,0.00,VWS V14.01,2013-08-01 05:17:00,
2013-08-01 00:22:00,76.3,69.5,29.70,NE,35,3.1,4.0,80,0.00,,---,0.00,VWS V14.01,2013-08-01 05:22:00,
2013-08-01 00:27:00,76.1,70.4,29.70,NE,35,4.0,4.9,82,0.00,,---,0.00,VWS V14.01,2013-08-01 05:27:00,
2013-08-01 00:32:00,75.7,70.6,29.70,NE,35,2.7,3.6,84,0.00,,---,0.00,VWS V14.01,2013-08-01 05:32:00,
2013-08-01 00:37:00,75.6,70.4,29.70,NE,35,3.6,4.0,84,0.00,,---,0.00,VWS V14.01,2013-08-01 05:37:00,
2013-08-01 00:42:00,75.4,70.7,29.70,NE,35,3.1,3.6,86,0.00,,---,0.00,VWS V14.01,2013-08-01 05:42:00,
2013-08-01 00:47:00,75.6,70.9,29.67,NE,35,3.1,3.1,86,0.00,,---,0.00,VWS V14.01,2013-08-01 05:47:00,
2013-08-01 00:52:00,75.9,70.2,29.67,NE,35,3.1,4.0,82,0.00,,---,0.00,VWS V14.01,2013-08-01 05:52:00,
2013-08-01 00:57:00,76.1,69.8,29.67,NE,47,3.6,5.8,81,0.00,,---,0.00,VWS V14.01,2013-08-01 05:57:00,
2013-08-01 01:02:00,76.3,69.5,29.70,NE,47,5.8,5.8,80,0.00,,---,0.00,VWS V14.01,2013-08-01 06:02:00,
2013-08-01 01:07:00,76.5,69.7,29.70,NE,56,4.9,6.3,80,0.00,,---,0.00,VWS V14.01,2013-08-01 06:07:00,
2013-08-01 01:12:00,76.6,69.3,29.70,ENE,58,5.4,6.7,78,0.00,,---,0.00,VWS V14.01,2013-08-01 06:12:00,
2013-08-01 01:17:00,76.8,68.9,29.70,ENE,71,6.3,7.6,76,0.00,,---,0.00,VWS V14.01,2013-08-01 06:17:00,
2013-08-01 01:22:00,76.8,68.9,29.70,ENE,60,5.4,5.8,76,0.00,,---,0.00,VWS V14.01,2013-08-01 06:22:00,
2013-08-01 01:27:00,76.6,68.7,29.70,NE,56,4.9,7.6,76,0.00,,---,0.00,VWS V14.01,2013-08-01 06:27:00,
2013-08-01 01:32:00,76.6,68.7,29.70,ENE,68,4.5,8.1,76,0.00,,---,0.00,VWS V14.01,2013-08-01 06:32:00,
2013-08-01 01:37:00,76.6,68.7,29.70,ENE,63,5.4,6.3,76,0.00,,---,0.00,VWS V14.01,2013-08-01 06:37:00,
2013-08-01 01:42:00,76.6,68.7,29.70,ENE,70,4.0,5.4,76,0.00,,---,0.00,VWS V14.01,2013-08-01 06:42:00,
2013-08-01 01:47:00,76.5,68.5,29.70,ENE,70,5.8,5.8,76,0.00,,---,0.00,VWS V14.01,2013-08-01 06:47:00,
2013-08-01 01:52:00,76.3,68.4,29.70,ENE,70,4.0,5.4,76,0.00,,---,0.00,VWS V14.01,2013-08-01 06:52:00,
2013-08-01 01:57:00,76.1,68.8,29.70,ENE,65,6.3,6.3,78,0.00,,---,0.00,VWS V14.01,2013-08-01 06:57:00,
2013-08-01 02:02:00,76.1,68.8,29.70,ENE,70,5.4,7.6,78,0.00,,---,0.00,VWS V14.01,2013-08-01 07:02:00,
2013-08-01 02:07:00,76.1,69.3,29.70,East,97,4.0,4.0,80,0.00,,---,0.00,VWS V14.01,2013-08-01 07:07:00,
2013-08-01 02:12:00,75.9,69.1,29.70,ESE,105,3.6,4.0,80,0.00,,---,0.00,VWS V14.01,2013-08-01 07:12:00,
2013-08-01 02:17:00,75.6,69.3,29.70,SE,127,4.0,4.0,81,0.00,,---,0.00,VWS V14.01,2013-08-01 07:17:00,
2013-08-01 02:22:00,75.2,69.5,29.70,SE,127,0.0,3.6,82,0.00,,---,0.00,VWS V14.01,2013-08-01 07:22:00,
2013-08-01 02:27:00,75.2,69.5,29.70,SE,127,0.0,0.0,82,0.00,,---,0.00,VWS V14.01,2013-08-01 07:27:00,
2013-08-01 02:32:00,75.0,70.4,29.70,SE,127,0.0,0.0,86,0.00,,---,0.00,VWS V14.01,2013-08-01 07:32:00,
2013-08-01 02:37:00,75.0,70.4,29.70,SE,127,0.0,0.0,86,0.00,,---,0.00,VWS V14.01,2013-08-01 07:37:00,
2013-08-01 02:42:00,74.8,70.2,29.70,SE,127,0.0,0.0,86,0.00,,---,0.00,VWS V14.01,2013-08-01 07:42:00,
2013-08-01 02:47:00,74.8,70.2,29.70,SE,127,0.0,0.0,86,0.00,,---,0.00,VWS V14.01,2013-08-01 07:47:00,
2013-08-01 02:52:00,74.7,70.0,29.70,SE,127,0.0,0.0,86,0.00,,---,0.00,VWS V14.01,2013-08-01 07:52:00,
2013-08-01 02:57:00,74.5,70.4,29.70,SE,127,2.7,2.7,87,0.00,,---,0.00,VWS V14.01,2013-08-01 07:57:00,
2013-08-01 03:02:00,74.5,70.4,29.67,SE,127,2.2,2.2,87,0.00,,---,0.00,VWS V14.01,2013-08-01 08:02:00,
2013-08-01 03:07:00,74.3,70.2,29.67,SE,127,0.0,3.1,87,0.00,,---,0.00,VWS V14.01,2013-08-01 08:07:00,
2013-08-01 03:12:00,74.3,70.7,29.67,SE,127,0.0,0.0,88,0.00,,---,0.00,VWS V14.01,2013-08-01 08:12:00,
2013-08-01 03:17:00,74.1,70.5,29.67,SE,127,0.0,0.0,88,0.00,,---,0.00,VWS V14.01,2013-08-01 08:17:00,
2013-08-01 03:22:00,73.9,70.3,29.67,SE,127,0.0,0.0,88,0.00,,---,0.00,VWS V14.01,2013-08-01 08:22:00,
2013-08-01 03:28:00,73.9,70.8,29.67,SE,127,0.0,0.0,90,0.00,,---,0.00,VWS V14.01,2013-08-01 08:28:00,
2013-08-01 03:33:00,73.8,70.7,29.67,SE,127,0.0,0.0,90,0.00,,---,0.00,VWS V14.01,2013-08-01 08:33:00,
2013-08-01 03:38:00,73.6,71.4,29.67,SE,127,0.0,0.0,93,0.00,,---,0.00,VWS V14.01,2013-08-01 08:38:00,
2013-08-01 03:43:00,73.4,71.7,29.67,SE,127,0.0,0.0,94,0.00,,---,0.00,VWS V14.01,2013-08-01 08:43:00,
2013-08-01 03:48:00,73.2,71.6,29.67,SE,127,0.0,0.0,94,0.00,,---,0.00,VWS V14.01,2013-08-01 08:48:00,
2013-08-01 03:53:00,73.0,71.4,29.67,ENE,70,4.0,4.0,94,0.00,,---,0.00,VWS V14.01,2013-08-01 08:53:00,
2013-08-01 03:58:00,73.0,72.3,29.67,ENE,70,3.6,3.6,98,0.00,,---,0.00,VWS V14.01,2013-08-01 08:58:00,
2013-08-01 04:04:00,72.9,72.6,29.70,ENE,70,3.6,4.0,99,0.00,,---,0.00,VWS V14.01,2013-08-01 09:04:00,
2013-08-01 04:09:00,72.9,72.9,29.70,ENE,70,3.6,3.6,100,0.00,,---,0.00,VWS V14.01,2013-08-01 09:09:00,
2013-08-01 04:14:00,72.7,72.7,29.70,ENE,70,3.1,3.1,100,0.00,,---,0.00,VWS V14.01,2013-08-01 09:14:00,
2013-08-01 04:19:00,72.7,72.7,29.70,ENE,70,2.7,3.1,100,0.00,,---,0.00,VWS V14.01,2013-08-01 09:19:00,
2013-08-01 04:24:00,72.5,72.5,29.70,ENE,70,2.7,2.7,100,0.00,,---,0.00,VWS V14.01,2013-08-01 09:24:00,
2013-08-01 04:29:00,72.3,72.3,29.70,ENE,70,0.0,0.0,100,0.00,,---,0.00,VWS V14.01,2013-08-01 09:29:00,
2013-08-01 04:34:00,72.1,72.2,29.67,ENE,70,0.0,0.0,100,0.00,,---,0.00,VWS V14.01,2013-08-01 09:34:00,
2013-08-01 04:40:00,72.0,72.0,29.67,ENE,70,0.0,0.0,100,0.00,,---,0.00,VWS V14.01,2013-08-01 09:40:00,
2013-08-01 04:45:00,71.8,71.8,29.67,ENE,70,0.0,0.0,100,0.00,,---,0.00,VWS V14.01,2013-08-01 09:45:00,
2013-08-01 04:50:00,71.8,71.8,29.67,ENE,70,0.0,0.0,100,0.00,,---,0.00,VWS V14.01,2013-08-01 09:50:00,
2013-08-01 04:55:00,71.6,71.6,29.67,ENE,70,0.0,0.0,100,0.00,,---,0.00,VWS V14.01,2013-08-01 09:55:00,
2013-08-01 05:01:00,71.6,71.6,29.70,ENE,70,0.0,0.0,100,0.00,,---,0.00,VWS V14.01,2013-08-01 10:01:00,
2013-08-01 05:06:00,71.6,71.6,29.70,ENE,70,0.0,0.0,100,0.00,,---,0.00,VWS V14.01,2013-08-01 10:06:00,
2013-08-01 05:11:00,71.4,71.4,29.70,ENE,70,0.0,0.0,100,0.00,,---,0.00,VWS V14.01,2013-08-01 10:11:00,
2013-08-01 05:16:00,71.2,71.2,29.70,ENE,70,0.0,0.0,100,0.00,,---,0.00,VWS V14.01,2013-08-01 10:16:00,
2013-08-01 05:21:00,71.1,71.1,29.70,ENE,70,0.0,0.0,100,0.00,,---,0.00,VWS V14.01,2013-08-01 10:21:00,
2013-08-01 05:26:00,71.1,71.1,29.70,ENE,70,0.0,0.0,100,0.00,,---,0.00,VWS V14.01,2013-08-01 10:26:00,
2013-08-01 05:32:00,71.1,71.1,29.70,ENE,70,0.0,0.0,100,0.00,,---,0.00,VWS V14.01,2013-08-01 10:32:00,
2013-08-01 05:37:00,70.9,70.9,29.70,ENE,70,0.0,0.0,100,0.00,,---,0.00,VWS V14.01,2013-08-01 10:37:00,
2013-08-01 05:42:00,71.1,71.1,29.70,ENE,70,0.0,0.0,100,0.00,,---,0.00,VWS V14.01,2013-08-01 10:42:00,
2013-08-01 05:47:00,70.9,70.9,29.70,ENE,70,0.0,0.0,100,0.00,,---,0.00,VWS V14.01,2013-08-01 10:47:00,
2013-08-01 05:52:00,70.9,70.9,29.70,ENE,70,0.0,0.0,100,0.00,,---,0.00,VWS V14.01,2013-08-01 10:52:00,
2013-08-01 05:57:00,70.7,70.7,29.70,ENE,70,0.0,0.0,100,0.00,,---,0.00,VWS V14.01,2013-08-01 10:57:00,
2013-08-01 06:02:00,70.5,70.5,29.70,ENE,70,0.0,0.0,100,0.00,,---,0.00,VWS V14.01,2013-08-01 11:02:00,
2013-08-01 06:08:00,70.5,70.5,29.70,ENE,70,0.0,0.0,100,0.00,,---,0.00,VWS V14.01,2013-08-01 11:08:00,
2013-08-01 06:13:00,70.5,70.5,29.70,ENE,70,0.0,0.0,100,0.00,,---,0.00,VWS V14.01,2013-08-01 11:13:00,
2013-08-01 06:18:00,70.5,70.5,29.70,ENE,70,0.0,0.0,100,0.00,,---,0.00,VWS V14.01,2013-08-01 11:18:00,
2013-08-01 06:23:00,70.5,70.5,29.70,ENE,70,0.0,0.0,100,0.00,,---,0.00,VWS V14.01,2013-08-01 11:23:00,
2013-08-01 06:28:00,70.5,70.5,29.70,ENE,70,0.0,0.0,100,0.00,,---,0.00,VWS V14.01,2013-08-01 11:28:00,
2013-08-01 06:33:00,70.5,70.5,29.70,ENE,70,0.0,0.0,100,0.00,,---,0.00,VWS V14.01,2013-08-01 11:33:00,
2013-08-01 06:38:00,70.5,70.5,29.70,ENE,70,0.0,0.0,100,0.00,,---,0.00,VWS V14.01,2013-08-01 11:38:00,
2013-08-01 06:43:00,70.5,70.5,29.70,ENE,70,0.0,0.0,100,0.00,,---,0.00,VWS V14.01,2013-08-01 11:43:00,
2013-08-01 06:49:00,70.5,70.5,29.70,ENE,70,0.0,0.0,100,0.00,,---,0.00,VWS V14.01,2013-08-01 11:49:00,
2013-08-01 06:54:00,70.5,70.5,29.70,ENE,70,0.0,0.0,100,0.00,,---,0.00,VWS V14.01,2013-08-01 11:54:00,
2013-08-01 07:00:00,70.3,70.3,29.70,ENE,70,0.0,0.0,100,0.00,,---,0.00,VWS V14.01,2013-08-01 12:00:00,
2013-08-01 07:05:00,70.2,70.2,29.70,ENE,70,0.0,0.0,100,0.00,,---,0.00,VWS V14.01,2013-08-01 12:05:00,
2013-08-01 07:10:00,70.3,70.3,29.70,ENE,70,0.0,0.0,100,0.00,,---,0.00,VWS V14.01,2013-08-01 12:10:00,
2013-08-01 07:15:00,70.3,70.3,29.70,ENE,70,0.0,2.2,100,0.00,,---,0.00,VWS V14.01,2013-08-01 12:15:00,
2013-08-01 07:20:00,70.5,70.5,29.70,ENE,70,0.0,0.0,100,0.00,,---,0.00,VWS V14.01,2013-08-01 12:20:00,
2013-08-01 07:26:00,70.7,70.7,29.70,ENE,70,0.0,0.0,100,0.00,,---,0.00,VWS V14.01,2013-08-01 12:26:00,
2013-08-01 07:31:00,70.9,70.9,29.70,ENE,70,0.0,0.0,100,0.00,,---,0.00,VWS V14.01,2013-08-01 12:31:00,
2013-08-01 07:36:00,71.1,71.1,29.70,ENE,70,0.0,0.0,100,0.00,,---,0.00,VWS V14.01,2013-08-01 12:36:00,
2013-08-01 07:41:00,71.4,71.4,29.70,ENE,70,3.1,3.6,100,0.00,,---,0.00,VWS V14.01,2013-08-01 12:41:00,
2013-08-01 07:46:00,71.8,71.8,29.70,ENE,70,2.7,2.7,100,0.00,,---,0.00,VWS V14.01,2013-08-01 12:46:00,
2013-08-01 07:51:00,72.0,72.0,29.70,ENE,70,3.1,3.6,100,0.00,,---,0.00,VWS V14.01,2013-08-01 12:51:00,
2013-08-01 07:56:00,72.1,72.2,29.70,ENE,70,4.0,4.9,100,0.00,,---,0.00,VWS V14.01,2013-08-01 12:56:00,
2013-08-01 08:01:00,72.5,72.5,29.70,ENE,70,4.0,4.0,100,0.00,,---,0.00,VWS V14.01,2013-08-01 13:01:00,
2013-08-01 08:06:00,73.0,73.1,29.70,ENE,70,5.8,6.3,100,0.00,,---,0.00,VWS V14.01,2013-08-01 13:06:00,
2013-08-01 08:11:00,73.6,73.6,29.70,ENE,70,6.3,6.3,100,0.00,,---,0.00,VWS V14.01,2013-08-01 13:11:00,
2013-08-01 08:17:00,74.3,74.3,29.70,ENE,65,7.6,8.1,100,0.00,,---,0.00,VWS V14.01,2013-08-01 13:17:00,
2013-08-01 08:22:00,75.0,75.0,29.70,ENE,64,6.3,6.3,100,0.00,,---,0.00,VWS V14.01,2013-08-01 13:22:00,
2013-08-01 08:27:00,75.4,75.4,29.70,NE,54,6.3,8.1,100,0.00,,---,0.00,VWS V14.01,2013-08-01 13:27:00,
2013-08-01 08:33:00,75.9,75.9,29.70,ENE,67,6.3,7.6,100,0.00,,---,0.00,VWS V14.01,2013-08-01 13:33:00,
2013-08-01 08:38:00,76.3,76.3,29.70,ENE,76,7.6,7.6,100,0.00,,---,0.00,VWS V14.01,2013-08-01 13:38:00,
2013-08-01 08:43:00,76.8,75.1,29.70,East,89,5.8,6.3,94,0.00,,---,0.00,VWS V14.01,2013-08-01 13:43:00,
2013-08-01 08:48:00,77.4,73.2,29.70,East,91,5.4,7.6,87,0.00,,---,0.00,VWS V14.01,2013-08-01 13:48:00,
2013-08-01 08:53:00,77.9,72.7,29.70,ENE,71,5.8,7.6,84,0.00,,---,0.00,VWS V14.01,2013-08-01 13:53:00,
2013-08-01 08:58:00,78.8,71.9,29.70,East,83,5.4,7.6,80,0.00,,---,0.00,VWS V14.01,2013-08-01 13:58:00,
2013-08-01 09:03:00,79.7,70.5,29.70,East,82,5.8,8.7,74,0.00,,---,0.00,VWS V14.01,2013-08-01 14:03:00,
2013-08-01 09:08:00,80.4,70.6,29.70,ENE,67,6.3,8.7,72,0.00,,---,0.00,VWS V14.01,2013-08-01 14:08:00,
2013-08-01 09:14:00,81.1,69.4,29.70,East,94,5.4,5.4,68,0.00,,---,0.00,VWS V14.01,2013-08-01 14:14:00,
2013-08-01 09:19:00,81.5,69.1,29.70,NE,53,5.8,5.8,66,0.00,,---,0.00,VWS V14.01,2013-08-01 14:19:00,
2013-08-01 09:24:00,81.7,68.6,29.70,East,95,7.6,8.3,64,0.00,,---,0.00,VWS V14.01,2013-08-01 14:24:00,
2013-08-01 09:30:00,82.0,67.5,29.70,ESE,117,10.1,10.1,62,0.00,,---,0.00,VWS V14.01,2013-08-01 14:30:00,
2013-08-01 09:35:00,82.2,67.7,29.70,East,85,7.2,8.3,62,0.00,,---,0.00,VWS V14.01,2013-08-01 14:35:00,
2013-08-01 09:40:00,82.4,67.1,29.70,SE,126,6.3,8.1,60,0.00,,---,0.00,VWS V14.01,2013-08-01 14:40:00,
2013-08-01 09:45:00,82.6,67.3,29.73,ESE,108,7.6,8.3,60,0.00,,---,0.00,VWS V14.01,2013-08-01 14:45:00,
2013-08-01 09:50:00,83.1,67.1,29.73,East,95,4.0,6.3,58,0.00,,---,0.00,VWS V14.01,2013-08-01 14:50:00,
2013-08-01 09:56:00,83.5,67.4,29.73,East,79,5.8,8.3,58,0.00,,---,0.00,VWS V14.01,2013-08-01 14:56:00,
2013-08-01 10:01:00,84.2,67.3,29.70,ENE,66,6.3,8.3,57,0.00,,---,0.00,VWS V14.01,2013-08-01 15:01:00,
2013-08-01 10:06:00,84.7,67.1,29.70,ENE,67,5.8,7.2,56,0.00,,---,0.00,VWS V14.01,2013-08-01 15:06:00,
2013-08-01 10:12:00,85.1,65.8,29.70,East,97,3.1,3.1,52,0.00,,---,0.00,VWS V14.01,2013-08-01 15:12:00,
2013-08-01 10:17:00,85.1,65.8,29.70,SE,124,5.8,6.3,52,0.00,,---,0.00,VWS V14.01,2013-08-01 15:17:00,
2013-08-01 10:22:00,84.9,64.8,29.70,SE,127,6.3,8.1,51,0.00,,---,0.00,VWS V14.01,2013-08-01 15:22:00,
2013-08-01 10:27:00,85.1,65.8,29.70,ESE,120,5.4,5.8,52,0.00,,---,0.00,VWS V14.01,2013-08-01 15:27:00,
2013-08-01 10:32:00,85.6,66.3,29.70,SE,143,8.1,8.1,52,0.00,,---,0.00,VWS V14.01,2013-08-01 15:32:00,
2013-08-01 10:37:00,86.0,65.8,29.70,East,96,8.3,8.7,51,0.00,,---,0.00,VWS V14.01,2013-08-01 15:37:00,
2013-08-01 10:42:00,86.4,64.4,29.70,SE,136,8.1,8.3,48,0.00,,---,0.00,VWS V14.01,2013-08-01 15:42:00,
2013-08-01 10:48:00,86.4,64.4,29.70,ENE,57,8.1,8.1,48,0.00,,---,0.00,VWS V14.01,2013-08-01 15:48:00,
2013-08-01 10:53:00,86.9,64.9,29.70,ESE,104,6.7,7.6,48,0.00,,---,0.00,VWS V14.01,2013-08-01 15:53:00,
2013-08-01 10:58:00,87.4,65.4,29.70,East,88,5.8,8.1,48,0.00,,---,0.00,VWS V14.01,2013-08-01 15:58:00,
2013-08-01 11:04:00,87.8,64.8,29.70,East,97,8.1,8.1,46,0.00,,---,0.00,VWS V14.01,2013-08-01 16:04:00,
2013-08-01 11:09:00,87.6,64.6,29.70,ENE,77,8.1,8.3,46,0.00,,---,0.00,VWS V14.01,2013-08-01 16:09:00,
2013-08-01 11:14:00,87.8,64.8,29.70,East,95,8.1,8.1,46,0.00,,---,0.00,VWS V14.01,2013-08-01 16:14:00,
2013-08-01 11:19:00,88.0,64.9,29.70,East,86,4.0,6.3,46,0.00,,---,0.00,VWS V14.01,2013-08-01 16:19:00,
2013-08-01 11:24:00,87.6,64.6,29.70,ENE,69,7.2,11.0,46,0.00,,---,0.00,VWS V14.01,2013-08-01 16:24:00,
2013-08-01 11:29:00,87.6,64.6,29.70,ENE,57,8.7,10.5,46,0.00,,---,0.00,VWS V14.01,2013-08-01 16:29:00,
2013-08-01 11:34:00,87.6,63.7,29.70,North,11,5.8,8.7,45,0.00,,---,0.00,VWS V14.01,2013-08-01 16:34:00,
2013-08-01 11:39:00,87.8,64.8,29.70,East,91,5.4,12.3,46,0.00,,---,0.00,VWS V14.01,2013-08-01 16:39:00,
2013-08-01 11:44:00,88.5,63.5,29.70,ESE,113,5.8,7.6,44,0.00,,---,0.00,VWS V14.01,2013-08-01 16:44:00,
2013-08-01 11:50:00,88.7,63.7,29.70,ENE,74,8.1,9.6,44,0.00,,---,0.00,VWS V14.01,2013-08-01 16:50:00,
2013-08-01 11:55:00,89.1,63.0,29.70,NE,55,6.3,6.3,42,0.00,,---,0.00,VWS V14.01,2013-08-01 16:55:00,
2013-08-01 12:00:00,89.2,63.2,29.70,NNE,33,8.1,8.7,42,0.00,,---,0.00,VWS V14.01,2013-08-01 17:00:00,
2013-08-01 12:05:00,89.2,63.2,29.70,ENE,64,4.9,5.8,42,0.00,,---,0.00,VWS V14.01,2013-08-01 17:05:00,
2013-08-01 12:10:00,89.1,63.0,29.70,NE,54,10.1,12.3,42,0.00,,---,0.00,VWS V14.01,2013-08-01 17:10:00,
2013-08-01 12:15:00,89.1,63.0,29.70,ENE,74,6.3,6.7,42,0.00,,---,0.00,VWS V14.01,2013-08-01 17:15:00,
2013-08-01 12:20:00,89.2,63.2,29.70,East,85,3.1,8.1,42,0.00,,---,0.00,VWS V14.01,2013-08-01 17:20:00,
2013-08-01 12:25:00,89.6,63.5,29.70,NNE,22,7.6,7.6,42,0.00,,---,0.00,VWS V14.01,2013-08-01 17:25:00,
2013-08-01 12:31:00,90.1,62.9,29.70,East,83,2.7,4.0,40,0.00,,---,0.00,VWS V14.01,2013-08-01 17:31:00,
2013-08-01 12:36:00,90.3,62.0,29.70,ENE,68,2.2,4.0,39,0.00,,---,0.00,VWS V14.01,2013-08-01 17:36:00,
2013-08-01 12:41:00,90.1,61.9,29.70,ESE,110,5.4,5.8,39,0.00,,---,0.00,VWS V14.01,2013-08-01 17:41:00,
2013-08-01 12:46:00,90.1,61.9,29.67,ESE,104,6.3,6.3,39,0.00,,---,0.00,VWS V14.01,2013-08-01 17:46:00,
2013-08-01 12:52:00,90.1,61.9,29.67,East,92,3.1,4.0,39,0.00,,---,0.00,VWS V14.01,2013-08-01 17:52:00,
2013-08-01 12:57:00,90.7,61.2,29.67,ENE,61,3.6,3.6,38,0.00,,---,0.00,VWS V14.01,2013-08-01 17:57:00,
2013-08-01 13:02:00,90.7,61.2,29.67,East,82,5.8,8.7,38,0.00,,---,0.00,VWS V14.01,2013-08-01 18:02:00,
2013-08-01 13:07:00,91.0,60.4,29.67,NNE,25,10.5,10.5,36,0.00,,---,0.00,VWS V14.01,2013-08-01 18:07:00,
2013-08-01 13:12:00,91.2,62.8,29.67,NE,45,5.4,5.4,39,0.00,,---,0.00,VWS V14.01,2013-08-01 18:12:00,
2013-08-01 13:18:00,91.4,60.7,29.67,ENE,69,10.1,10.1,36,0.00,,---,0.00,VWS V14.01,2013-08-01 18:18:00,
2013-08-01 13:23:00,91.8,61.0,29.67,ESE,120,4.9,4.9,36,0.00,,---,0.00,VWS V14.01,2013-08-01 18:23:00,
2013-08-01 13:28:00,91.8,58.6,29.67,ESE,117,5.4,5.4,33,0.00,,---,0.00,VWS V14.01,2013-08-01 18:28:00,
2013-08-01 13:33:00,91.2,59.4,29.67,SE,139,8.7,10.1,34,0.00,,---,0.00,VWS V14.01,2013-08-01 18:33:00,
2013-08-01 13:38:00,90.9,59.0,29.67,SSE,149,4.0,5.4,34,0.00,,---,0.00,VWS V14.01,2013-08-01 18:38:00,
2013-08-01 13:43:00,90.9,57.8,29.67,SE,137,2.2,3.1,33,0.00,,---,0.00,VWS V14.01,2013-08-01 18:43:00,
2013-08-01 13:48:00,91.2,58.1,29.67,ESE,111,6.3,6.7,33,0.00,,---,0.00,VWS V14.01,2013-08-01 18:48:00,
2013-08-01 13:54:00,91.4,57.0,29.67,East,88,3.6,6.3,32,0.00,,---,0.00,VWS V14.01,2013-08-01 18:54:00,
2013-08-01 13:59:00,91.6,57.1,29.67,East,91,8.7,8.7,32,0.00,,---,0.00,VWS V14.01,2013-08-01 18:59:00,
2013-08-01 14:04:00,91.8,56.0,29.64,ENE,71,7.6,8.1,30,0.00,,---,0.00,VWS V14.01,2013-08-01 19:04:00,
2013-08-01 14:09:00,91.9,56.1,29.64,ENE,71,8.7,10.5,30,0.00,,---,0.00,VWS V14.01,2013-08-01 19:09:00,
2013-08-01 14:14:00,92.3,57.8,29.64,East,86,8.3,8.3,32,0.00,,---,0.00,VWS V14.01,2013-08-01 19:14:00,
2013-08-01 14:19:00,92.7,56.7,29.64,SE,144,7.2,10.1,30,0.00,,---,0.00,VWS V14.01,2013-08-01 19:19:00,
2013-08-01 14:24:00,92.7,58.1,29.64,East,98,10.5,10.5,32,0.00,,---,0.00,VWS V14.01,2013-08-01 19:24:00,
2013-08-01 14:30:00,92.5,57.9,29.64,SE,128,10.5,12.3,32,0.00,,---,0.00,VWS V14.01,2013-08-01 19:30:00,
2013-08-01 14:35:00,92.3,57.8,29.64,East,101,6.7,6.7,32,0.00,,---,0.00,VWS V14.01,2013-08-01 19:35:00,
2013-08-01 14:40:00,92.3,57.8,29.64,ESE,116,8.1,8.3,32,0.00,,---,0.00,VWS V14.01,2013-08-01 19:40:00,
2013-08-01 14:45:00,92.5,57.9,29.64,ESE,102,6.3,6.3,32,0.00,,---,0.00,VWS V14.01,2013-08-01 19:45:00,
2013-08-01 14:50:00,92.8,56.9,29.64,SE,142,5.4,5.8,30,0.00,,---,0.00,VWS V14.01,2013-08-01 19:50:00,
2013-08-01 14:55:00,93.0,58.4,29.64,ESE,104,0.0,0.0,32,0.00,,---,0.00,VWS V14.01,2013-08-01 19:55:00,
2013-08-01 15:00:00,93.4,57.3,29.64,ESE,123,8.7,11.0,30,0.00,,---,0.00,VWS V14.01,2013-08-01 20:00:00,
2013-08-01 15:06:00,93.0,57.0,29.64,SE,129,5.8,5.8,30,0.00,,---,0.00,VWS V14.01,2013-08-01 20:06:00,
2013-08-01 15:11:00,93.0,58.4,29.64,ESE,107,10.5,10.5,32,0.00,,---,0.00,VWS V14.01,2013-08-01 20:11:00,
2013-08-01 15:16:00,92.8,58.2,29.64,ENE,74,9.2,9.2,32,0.00,,---,0.00,VWS V14.01,2013-08-01 20:16:00,
2013-08-01 15:21:00,93.0,57.0,29.64,SSE,150,7.6,7.6,30,0.00,,---,0.00,VWS V14.01,2013-08-01 20:21:00,
2013-08-01 15:26:00,93.0,57.0,29.64,ESE,112,8.1,8.3,30,0.00,,---,0.00,VWS V14.01,2013-08-01 20:26:00,
2013-08-01 15:31:00,92.8,55.5,29.64,SSE,149,7.6,8.7,28,0.00,,---,0.00,VWS V14.01,2013-08-01 20:31:00,
2013-08-01 15:36:00,93.4,55.9,29.64,ESE,115,7.2,7.2,28,0.00,,---,0.00,VWS V14.01,2013-08-01 20:36:00,
2013-08-01 15:41:00,93.4,55.9,29.64,East,99,8.3,8.3,28,0.00,,---,0.00,VWS V14.01,2013-08-01 20:41:00,
2013-08-01 15:46:00,93.6,57.5,29.61,ENE,72,8.3,8.3,30,0.00,,---,0.00,VWS V14.01,2013-08-01 20:46:00,
2013-08-01 15:51:00,93.7,56.2,29.61,ENE,58,7.6,8.7,28,0.00,,---,0.00,VWS V14.01,2013-08-01 20:51:00,
2013-08-01 15:56:00,94.1,56.5,29.61,East,87,8.3,8.7,28,0.00,,---,0.00,VWS V14.01,2013-08-01 20:56:00,
2013-08-01 16:01:00,94.1,55.0,29.61,East,101,10.5,13.2,27,0.00,,---,0.00,VWS V14.01,2013-08-01 21:01:00,
2013-08-01 16:06:00,93.7,54.7,29.61,SE,126,8.7,10.1,27,0.00,,---,0.00,VWS V14.01,2013-08-01 21:06:00,
2013-08-01 16:11:00,93.6,54.6,29.61,SE,130,12.8,12.8,27,0.00,,---,0.00,VWS V14.01,2013-08-01 21:11:00,
2013-08-01 16:16:00,93.7,54.7,29.61,East,98,6.3,10.5,27,0.00,,---,0.00,VWS V14.01,2013-08-01 21:16:00,
2013-08-01 16:21:00,93.6,56.1,29.61,SE,126,8.1,10.5,28,0.00,,---,0.00,VWS V14.01,2013-08-01 21:21:00,
2013-08-01 16:26:00,93.7,56.2,29.61,SE,135,9.2,10.5,28,0.00,,---,0.00,VWS V14.01,2013-08-01 21:26:00,
2013-08-01 16:31:00,94.5,55.3,29.61,East,99,5.4,13.2,27,0.00,,---,0.00,VWS V14.01,2013-08-01 21:31:00,
2013-08-01 16:36:00,94.1,55.0,29.61,ESE,122,8.7,8.7,27,0.00,,---,0.00,VWS V14.01,2013-08-01 21:36:00,
2013-08-01 16:42:00,94.1,55.0,29.61,East,92,10.5,11.0,27,0.00,,---,0.00,VWS V14.01,2013-08-01 21:42:00,
2013-08-01 16:47:00,93.9,54.9,29.61,ESE,117,8.3,10.1,27,0.00,,---,0.00,VWS V14.01,2013-08-01 21:47:00,
2013-08-01 16:52:00,93.7,56.2,29.61,SE,125,8.7,8.7,28,0.00,,---,0.00,VWS V14.01,2013-08-01 21:52:00,
2013-08-01 16:57:00,93.6,56.1,29.61,East,89,11.0,11.0,28,0.00,,---,0.00,VWS V14.01,2013-08-01 21:57:00,
2013-08-01 17:02:00,93.6,56.1,29.58,ESE,118,8.7,10.1,28,0.00,,---,0.00,VWS V14.01,2013-08-01 22:02:00,
2013-08-01 17:07:00,93.4,55.9,29.58,ESE,107,13.2,13.2,28,0.00,,---,0.00,VWS V14.01,2013-08-01 22:07:00,
2013-08-01 17:12:00,93.4,55.9,29.58,ESE,110,6.3,8.3,28,0.00,,---,0.00,VWS V14.01,2013-08-01 22:12:00,
2013-08-01 17:17:00,93.2,55.8,29.58,SSE,155,6.3,8.7,28,0.00,,---,0.00,VWS V14.01,2013-08-01 22:17:00,
2013-08-01 17:22:00,93.2,57.2,29.58,ESE,112,13.2,13.2,30,0.00,,---,0.00,VWS V14.01,2013-08-01 22:22:00,
2013-08-01 17:27:00,92.8,58.2,29.58,SE,124,8.7,8.7,32,0.00,,---,0.00,VWS V14.01,2013-08-01 22:27:00,
2013-08-01 17:32:00,92.8,58.2,29.58,SE,140,10.1,13.2,32,0.00,,---,0.00,VWS V14.01,2013-08-01 22:32:00,
2013-08-01 17:37:00,92.7,58.1,29.58,ESE,111,8.3,8.3,32,0.00,,---,0.00,VWS V14.01,2013-08-01 22:37:00,
2013-08-01 17:42:00,92.7,59.4,29.58,SE,125,15.0,15.0,33,0.00,,---,0.00,VWS V14.01,2013-08-01 22:42:00,
2013-08-01 17:47:00,92.3,59.1,29.58,ESE,120,11.0,11.0,33,0.00,,---,0.00,VWS V14.01,2013-08-01 22:47:00,
2013-08-01 17:52:00,92.5,59.2,29.58,ESE,114,10.5,11.0,33,0.00,,---,0.00,VWS V14.01,2013-08-01 22:52:00,
2013-08-01 17:57:00,92.7,59.4,29.58,SE,140,11.0,11.0,33,0.00,,---,0.00,VWS V14.01,2013-08-01 22:57:00,
2013-08-01 18:02:00,92.3,59.1,29.58,East,94,12.3,12.3,33,0.00,,---,0.00,VWS V14.01,2013-08-01 23:02:00,
2013-08-01 18:07:00,92.3,60.3,29.58,ESE,123,8.1,12.3,34,0.00,,---,0.00,VWS V14.01,2013-08-01 23:07:00,
2013-08-01 18:12:00,92.3,59.1,29.58,SE,128,6.3,8.3,33,0.00,,---,0.00,VWS V14.01,2013-08-01 23:12:00,
2013-08-01 18:17:00,92.1,58.9,29.55,SE,126,8.3,12.8,33,0.00,,---,0.00,VWS V14.01,2013-08-01 23:17:00,
2013-08-01 18:22:00,91.9,60.0,29.55,SE,139,8.7,8.7,34,0.00,,---,0.00,VWS V14.01,2013-08-01 23:22:00,
2013-08-01 18:27:00,91.8,61.0,29.55,ESE,103,12.3,13.2,36,0.00,,---,0.00,VWS V14.01,2013-08-01 23:27:00,
2013-08-01 18:32:00,91.8,61.0,29.55,ESE,119,10.5,11.0,36,0.00,,---,0.00,VWS V14.01,2013-08-01 23:32:00,
2013-08-01 18:37:00,91.8,61.0,29.55,SE,136,11.0,11.0,36,0.00,,---,0.00,VWS V14.01,2013-08-01 23:37:00,
2013-08-01 18:42:00,91.8,61.0,29.55,SE,124,6.3,6.3,36,0.00,,---,0.00,VWS V14.01,2013-08-01 23:42:00,
2013-08-01 18:48:00,91.8,61.0,29.55,SE,133,7.6,7.6,36,0.00,,---,0.00,VWS V14.01,2013-08-01 23:48:00,
2013-08-01 18:53:00,91.6,60.9,29.55,SE,131,7.6,10.5,36,0.00,,---,0.00,VWS V14.01,2013-08-01 23:53:00,
2013-08-01 18:58:00,91.2,58.1,29.55,SE,129,8.3,10.5,33,0.00,,---,0.00,VWS V14.01,2013-08-01 23:58:00,
2013-08-01 19:03:00,91.2,59.4,29.55,SE,137,6.3,6.3,34,0.00,,---,0.00,VWS V14.01,2013-08-02 00:03:00,
2013-08-01 19:08:00,90.9,59.0,29.55,SE,144,10.1,11.0,34,0.00,,---,0.00,VWS V14.01,2013-08-02 00:08:00,
2013-08-01 19:13:00,90.7,60.1,29.55,ESE,122,11.4,11.4,36,0.00,,---,0.00,VWS V14.01,2013-08-02 00:13:00,
2013-08-01 19:18:00,90.5,61.1,29.55,SE,127,5.8,8.3,38,0.00,,---,0.00,VWS V14.01,2013-08-02 00:18:00,
2013-08-01 19:23:00,90.1,60.8,29.55,SE,137,7.6,11.0,38,0.00,,---,0.00,VWS V14.01,2013-08-02 00:23:00,
2013-08-01 19:28:00,89.6,61.4,29.55,ESE,119,10.5,12.8,39,0.00,,---,0.00,VWS V14.01,2013-08-02 00:28:00,
2013-08-01 19:33:00,88.9,62.8,29.55,SE,144,7.6,8.3,42,0.00,,---,0.00,VWS V14.01,2013-08-02 00:33:00,
2013-08-01 19:38:00,88.2,61.2,29.55,SSE,148,7.6,8.7,40,0.00,,---,0.00,VWS V14.01,2013-08-02 00:38:00,
2013-08-01 19:43:00,87.6,61.7,29.55,SSE,150,5.4,6.3,42,0.00,,---,0.00,VWS V14.01,2013-08-02 00:43:00,
2013-08-01 19:49:00,87.1,61.2,29.58,SE,130,5.8,6.3,42,0.00,,---,0.00,VWS V14.01,2013-08-02 00:49:00,
2013-08-01 19:54:00,86.5,61.7,29.58,SE,131,4.9,4.9,44,0.00,,---,0.00,VWS V14.01,2013-08-02 00:54:00,
2013-08-01 19:59:00,86.2,61.4,29.58,SE,132,4.0,4.0,44,0.00,,---,0.00,VWS V14.01,2013-08-02 00:59:00,
2013-08-01 20:04:00,85.8,62.0,29.58,SE,131,4.0,4.0,45,0.00,,---,0.00,VWS V14.01,2013-08-02 01:04:00,
2013-08-01 20:09:00,85.5,62.7,29.58,SE,131,0.0,0.0,46,0.00,,---,0.00,VWS V14.01,2013-08-02 01:09:00,
2013-08-01 20:14:00,85.3,62.5,29.58,SE,130,0.0,0.0,46,0.00,,---,0.00,VWS V14.01,2013-08-02 01:14:00,
2013-08-01 20:19:00,85.1,63.2,29.58,ESE,120,0.0,0.0,48,0.00,,---,0.00,VWS V14.01,2013-08-02 01:19:00,
2013-08-01 20:24:00,84.9,63.1,29.58,ESE,122,0.0,0.0,48,0.00,,---,0.00,VWS V14.01,2013-08-02 01:24:00,
2013-08-01 20:30:00,84.6,63.6,29.58,ESE,122,0.0,0.0,50,0.00,,---,0.00,VWS V14.01,2013-08-02 01:30:00,
2013-08-01 20:35:00,84.2,63.3,29.58,ESE,123,0.0,0.0,50,0.00,,---,0.00,VWS V14.01,2013-08-02 01:35:00,
2013-08-01 20:40:00,83.8,63.8,29.58,ESE,123,0.0,0.0,51,0.00,,---,0.00,VWS V14.01,2013-08-02 01:40:00,
2013-08-01 20:45:00,83.5,64.3,29.58,ESE,123,0.0,0.0,52,0.00,,---,0.00,VWS V14.01,2013-08-02 01:45:00,
2013-08-01 20:50:00,83.1,64.8,29.58,ESE,123,0.0,0.0,54,0.00,,---,0.00,VWS V14.01,2013-08-02 01:50:00,
2013-08-01 20:55:00,82.8,65.2,29.58,ESE,123,0.0,0.0,56,0.00,,---,0.00,VWS V14.01,2013-08-02 01:55:00,
2013-08-01 21:00:00,82.4,65.7,29.58,ESE,123,0.0,0.0,57,0.00,,---,0.00,VWS V14.01,2013-08-02 02:00:00,
2013-08-01 21:05:00,82.0,66.1,29.58,ESE,123,0.0,0.0,58,0.00,,---,0.00,VWS V14.01,2013-08-02 02:05:00,
2013-08-01 21:10:00,82.0,66.8,29.58,ESE,123,0.0,0.0,60,0.00,,---,0.00,VWS V14.01,2013-08-02 02:10:00,
2013-08-01 21:15:00,81.9,66.6,29.58,ESE,123,0.0,0.0,60,0.00,,---,0.00,VWS V14.01,2013-08-02 02:15:00,
2013-08-01 21:21:00,81.7,67.2,29.58,ESE,123,0.0,0.0,62,0.00,,---,0.00,VWS V14.01,2013-08-02 02:21:00,
2013-08-01 21:26:00,81.5,67.0,29.58,ESE,123,3.1,3.1,62,0.00,,---,0.00,VWS V14.01,2013-08-02 02:26:00,
2013-08-01 21:31:00,81.1,67.4,29.58,SE,124,3.6,3.6,63,0.00,,---,0.00,VWS V14.01,2013-08-02 02:31:00,
2013-08-01 21:36:00,80.8,67.7,29.58,ESE,123,3.1,3.6,64,0.00,,---,0.00,VWS V14.01,2013-08-02 02:36:00,
2013-08-01 21:41:00,80.4,68.0,29.58,ESE,123,3.6,3.6,66,0.00,,---,0.00,VWS V14.01,2013-08-02 02:41:00,
2013-08-01 21:46:00,80.1,67.7,29.58,ESE,123,3.1,3.1,66,0.00,,---,0.00,VWS V14.01,2013-08-02 02:46:00,
2013-08-01 21:51:00,79.9,68.2,29.58,ESE,123,2.7,2.7,68,0.00,,---,0.00,VWS V14.01,2013-08-02 02:51:00,
2013-08-01 21:56:00,79.7,68.0,29.58,ESE,123,0.0,0.0,68,0.00,,---,0.00,VWS V14.01,2013-08-02 02:56:00,
2013-08-01 22:01:00,79.5,68.5,29.58,ESE,123,0.0,0.0,69,0.00,,---,0.00,VWS V14.01,2013-08-02 03:01:00,
2013-08-01 22:06:00,79.3,68.9,29.58,ESE,123,3.1,3.1,70,0.00,,---,0.00,VWS V14.01,2013-08-02 03:06:00,
2013-08-01 22:12:00,79.3,68.9,29.58,ESE,123,3.1,3.1,70,0.00,,---,0.00,VWS V14.01,2013-08-02 03:12:00,
2013-08-01 22:17:00,79.2,69.4,29.58,ESE,123,3.1,3.1,72,0.00,,---,0.00,VWS V14.01,2013-08-02 03:17:00,
2013-08-01 22:22:00,79.0,69.8,29.58,ESE,123,3.1,3.6,74,0.00,,---,0.00,VWS V14.01,2013-08-02 03:22:00,
2013-08-01 22:27:00,78.8,69.6,29.58,ESE,123,3.6,3.6,74,0.00,,---,0.00,VWS V14.01,2013-08-02 03:27:00,
2013-08-01 22:32:00,78.6,70.0,29.58,ESE,123,0.0,0.0,75,0.00,,---,0.00,VWS V14.01,2013-08-02 03:32:00,
2013-08-01 22:37:00,78.3,70.3,29.58,ESE,123,0.0,2.2,76,0.00,,---,0.00,VWS V14.01,2013-08-02 03:37:00,
2013-08-01 22:42:00,78.1,70.7,29.58,ESE,123,2.2,2.7,78,0.00,,---,0.00,VWS V14.01,2013-08-02 03:42:00,
2013-08-01 22:47:00,78.1,70.7,29.55,ESE,123,0.0,0.0,78,0.00,,---,0.00,VWS V14.01,2013-08-02 03:47:00,
2013-08-01 22:52:00,78.1,71.2,29.55,ESE,123,0.0,0.0,80,0.00,,---,0.00,VWS V14.01,2013-08-02 03:52:00,
2013-08-01 22:57:00,77.9,71.1,29.55,ESE,123,0.0,0.0,80,0.00,,---,0.00,VWS V14.01,2013-08-02 03:57:00,
2013-08-01 23:01:00,77.9,71.1,29.58,ESE,123,0.0,0.0,80,0.00,,---,0.00,VWS V14.01,2013-08-02 04:01:00,
2013-08-01 23:02:00,77.9,71.1,29.58,ESE,123,0.0,0.0,80,0.00,,---,0.00,VWS V14.01,2013-08-02 04:02:00,
2013-08-01 23:07:00,77.9,72.2,29.58,ESE,123,2.2,3.1,82,0.00,,---,0.00,VWS V14.01,2013-08-02 04:07:00,
2013-08-01 23:12:00,77.9,72.2,29.58,ESE,123,2.2,2.7,82,0.00,,---,0.00,VWS V14.01,2013-08-02 04:12:00,
2013-08-01 23:15:00,77.7,72.0,29.58,ESE,123,2.7,2.7,82,0.00,,---,0.00,VWS V14.01,2013-08-02 04:15:00,
2013-08-01 23:16:00,77.7,72.0,29.58,ESE,123,2.7,2.7,82,0.00,,---,0.00,VWS V14.01,2013-08-02 04:16:00,
2013-08-01 23:21:00,77.5,71.8,29.58,ESE,123,2.7,2.7,82,0.00,,---,0.00,VWS V14.01,2013-08-02 04:21:00,
2013-08-01 23:26:00,77.4,71.6,29.58,ESE,123,0.0,0.0,82,0.00,,---,0.00,VWS V14.01,2013-08-02 04:26:00,
2013-08-01 23:31:00,77.0,71.3,29.58,ESE,123,0.0,0.0,82,0.00,,---,0.00,VWS V14.01,2013-08-02 04:31:00,
2013-08-01 23:36:00,76.8,72.2,29.58,ESE,123,2.7,2.7,86,0.00,,---,0.00,VWS V14.01,2013-08-02 04:36:00,
2013-08-01 23:41:00,76.6,72.5,29.58,ESE,123,3.1,3.6,87,0.00,,---,0.00,VWS V14.01,2013-08-02 04:41:00,
2013-08-01 23:46:00,76.1,73.0,29.58,ESE,123,2.7,2.7,90,0.00,,---,0.00,VWS V14.01,2013-08-02 04:46:00,
2013-08-01 23:51:00,75.7,73.1,29.58,ESE,123,3.1,3.1,92,0.00,,---,0.00,VWS V14.01,2013-08-02 04:51:00,
2013-08-01 23:56:00,75.6,73.4,29.58,ESE,123,2.2,2.7,93,0.00,,---,0.00,VWS V14.01,2013-08-02 04:56:00,